createdAt,value
2023-03-07T00:00:38.728Z,9.03
2023-03-07T00:03:08.676Z,8.67
2023-03-07T00:05:37.072Z,11.40
2023-03-07T00:08:06.341Z,9.10
2023-03-07T00:10:34.912Z,8.50
2023-03-07T00:13:04.081Z,8.70
2023-03-07T00:15:32.611Z,9.90
2023-03-07T00:18:01.112Z,8.60
2023-03-07T00:20:31.150Z,8.07
2023-03-07T00:22:59.578Z,6.53
2023-03-07T00:25:28.010Z,7.10
2023-03-07T00:27:56.437Z,6.87
2023-03-07T00:30:25.284Z,10.17
2023-03-07T00:32:53.677Z,6.17
2023-03-07T00:35:22.062Z,7.10
2023-03-07T00:37:51.885Z,8.33
2023-03-07T00:40:20.364Z,7.20
2023-03-07T00:42:48.712Z,6.13
2023-03-07T00:45:17.244Z,6.20
2023-03-07T00:47:45.798Z,9.50
2023-03-07T00:50:14.611Z,8.17
2023-03-07T00:52:43.057Z,4.93
2023-03-07T00:55:13.133Z,11.17
2023-03-07T00:57:42.025Z,6.63
2023-03-07T01:00:12.604Z,8.63
2023-03-07T01:02:40.927Z,7.70
2023-03-07T01:05:10.712Z,11.50
2023-03-07T01:07:39.112Z,11.33
2023-03-07T01:10:08.806Z,10.30
2023-03-07T01:12:39.101Z,12.80
2023-03-07T01:15:08.989Z,12.27
2023-03-07T01:17:38.501Z,15.57
2023-03-07T01:20:09.820Z,15.60
2023-03-07T01:22:38.206Z,22.33
2023-03-07T01:25:08.955Z,19.47
2023-03-07T01:27:38.728Z,21.50
2023-03-07T01:30:09.191Z,33.20
2023-03-07T01:32:39.707Z,32.93
2023-03-07T01:35:09.438Z,39.27
2023-03-07T01:37:38.244Z,30.33
2023-03-07T01:40:10.028Z,31.70
2023-03-07T01:42:39.817Z,28.53
2023-03-07T01:45:43.583Z,31.47
2023-03-07T01:48:12.060Z,32.40
2023-03-07T01:50:41.578Z,33.07
2023-03-07T01:53:10.797Z,30.90
2023-03-07T01:55:39.585Z,31.90
2023-03-07T01:58:16.467Z,29.50
2023-03-07T02:00:47.390Z,29.30
2023-03-07T02:03:23.448Z,26.50
2023-03-07T02:05:57.685Z,32.40
2023-03-07T02:08:29.828Z,24.83
2023-03-07T02:10:58.493Z,26.63
2023-03-07T02:13:28.323Z,30.97
2023-03-07T02:15:57.990Z,24.40
2023-03-07T02:18:29.869Z,28.30
2023-03-07T02:21:09.292Z,28.30
2023-03-07T02:23:47.044Z,28.93
2023-03-07T02:26:23.023Z,26.60
2023-03-07T02:28:53.740Z,30.03
2023-03-07T02:31:22.433Z,27.77
2023-03-07T02:33:50.853Z,30.07
2023-03-07T02:36:24.798Z,28.87
2023-03-07T02:39:07.676Z,28.03
2023-03-07T02:41:39.123Z,26.93
2023-03-07T02:44:15.742Z,26.33
2023-03-07T02:46:44.241Z,20.53
2023-03-07T02:49:12.748Z,23.17
2023-03-07T02:51:41.362Z,26.03
2023-03-07T02:54:10.354Z,25.73
2023-03-07T02:56:38.957Z,30.10
2023-03-07T02:59:07.562Z,28.53
2023-03-07T03:01:38.551Z,30.00
2023-03-07T03:04:06.880Z,25.43
2023-03-07T03:06:35.316Z,26.60
2023-03-07T03:09:04.241Z,23.33
2023-03-07T03:11:34.047Z,30.37
2023-03-07T03:14:06.682Z,26.80
2023-03-07T03:16:36.560Z,24.43
2023-03-07T03:19:05.042Z,21.77
2023-03-07T03:21:33.950Z,25.80
2023-03-07T03:24:06.894Z,24.77
2023-03-07T03:26:36.644Z,22.50
2023-03-07T03:29:06.667Z,21.47
2023-03-07T03:31:37.297Z,18.00
2023-03-07T03:34:07.313Z,17.30
2023-03-07T03:36:35.888Z,21.73
2023-03-07T03:39:11.012Z,18.00
2023-03-07T03:41:45.934Z,16.53
2023-03-07T03:44:15.134Z,21.27
2023-03-07T03:46:45.059Z,17.53
2023-03-07T03:49:14.403Z,17.50
2023-03-07T03:51:43.848Z,13.80
2023-03-07T03:54:12.341Z,23.40
2023-03-07T03:56:40.742Z,14.83
2023-03-07T03:59:09.702Z,15.77
2023-03-07T04:01:38.064Z,18.40
2023-03-07T04:04:08.639Z,13.30
2023-03-07T04:06:38.513Z,14.40
2023-03-07T04:09:06.971Z,13.37
2023-03-07T04:11:38.089Z,13.57
2023-03-07T04:14:06.596Z,13.30
2023-03-07T04:16:35.271Z,13.10
2023-03-07T04:19:03.775Z,17.23
2023-03-07T04:21:33.868Z,12.30
2023-03-07T04:24:02.504Z,12.53
2023-03-07T04:26:34.046Z,18.30
2023-03-07T04:29:02.685Z,12.87
2023-03-07T04:31:34.078Z,11.47
2023-03-07T04:34:04.884Z,10.77
2023-03-07T04:36:35.027Z,14.27
2023-03-07T04:39:03.454Z,13.43
2023-03-07T04:41:33.050Z,13.67
2023-03-07T04:44:06.613Z,13.13
2023-03-07T04:46:35.015Z,11.07
2023-03-07T04:49:03.506Z,12.70
2023-03-07T04:51:32.083Z,12.73
2023-03-07T04:54:02.571Z,15.93
2023-03-07T04:56:31.257Z,10.47
2023-03-07T04:59:02.132Z,14.13
2023-03-07T05:01:30.618Z,12.70
2023-03-07T05:03:59.929Z,14.67
2023-03-07T05:06:29.516Z,15.07
2023-03-07T05:08:58.443Z,16.27
2023-03-07T05:11:28.202Z,15.40
2023-03-07T05:13:56.987Z,17.33
2023-03-07T05:16:25.457Z,15.63
2023-03-07T05:18:53.968Z,17.57
2023-03-07T05:21:22.541Z,19.60
2023-03-07T05:23:51.491Z,18.20
2023-03-07T05:26:20.505Z,17.97
2023-03-07T05:28:50.848Z,14.73
2023-03-07T05:31:20.093Z,17.63
2023-03-07T05:33:48.559Z,15.50
2023-03-07T05:36:17.609Z,19.37
2023-03-07T05:38:46.099Z,18.20
2023-03-07T05:41:14.478Z,25.33
2023-03-07T05:43:46.039Z,15.00
2023-03-07T05:46:15.993Z,24.50
2023-03-07T05:48:44.625Z,24.67
2023-03-07T05:51:13.240Z,25.70
2023-03-07T05:53:42.210Z,19.60
2023-03-07T05:56:11.120Z,18.57
2023-03-07T05:58:39.705Z,21.93
2023-03-07T06:01:09.093Z,20.80
2023-03-07T06:03:39.084Z,15.57
2023-03-07T06:06:57.821Z,17.07
2023-03-07T06:09:26.266Z,17.43
2023-03-07T06:11:56.622Z,16.17
2023-03-07T06:14:25.780Z,20.80
2023-03-07T06:16:54.188Z,18.10
2023-03-07T06:19:24.173Z,16.53
2023-03-07T06:21:53.899Z,21.43
2023-03-07T06:24:22.320Z,17.40
2023-03-07T06:26:51.069Z,16.93
2023-03-07T06:29:22.320Z,18.80
2023-03-07T06:31:51.248Z,15.13
2023-03-07T06:34:19.947Z,17.30
2023-03-07T06:36:50.698Z,13.10
2023-03-07T06:39:21.595Z,17.90
2023-03-07T06:41:53.477Z,21.10
2023-03-07T06:44:21.984Z,17.17
2023-03-07T06:46:50.585Z,23.23
2023-03-07T06:49:22.500Z,22.23
2023-03-07T06:51:52.923Z,21.00
2023-03-07T06:54:21.871Z,22.27
2023-03-07T06:56:51.639Z,23.00
2023-03-07T06:59:23.947Z,26.47
2023-03-07T07:01:52.593Z,26.87
2023-03-07T07:04:22.557Z,29.00
2023-03-07T07:06:53.380Z,26.57
2023-03-07T07:09:21.919Z,24.43
2023-03-07T07:11:50.810Z,31.93
2023-03-07T07:14:19.539Z,32.37
2023-03-07T07:16:48.179Z,29.50
2023-03-07T07:19:16.787Z,28.50
2023-03-07T07:21:45.320Z,34.73
2023-03-07T07:24:15.814Z,25.30
2023-03-07T07:26:44.543Z,30.27
2023-03-07T07:29:13.131Z,31.70
2023-03-07T07:31:42.146Z,37.10
2023-03-07T07:34:10.763Z,25.80
2023-03-07T07:36:39.313Z,31.33
2023-03-07T07:39:10.571Z,29.00
2023-03-07T07:41:44.349Z,27.33
2023-03-07T07:44:13.409Z,27.03
2023-03-07T07:46:54.306Z,11.17
2023-03-07T07:49:24.753Z,16.30
2023-03-07T07:51:54.984Z,12.67
2023-03-07T07:54:25.618Z,10.20
2023-03-07T07:56:57.537Z,14.80
2023-03-07T07:59:31.760Z,10.63
2023-03-07T08:02:00.288Z,10.23
2023-03-07T08:04:29.322Z,8.10
2023-03-07T08:06:57.793Z,7.60
2023-03-07T08:09:27.278Z,12.73
2023-03-07T08:11:57.012Z,8.80
2023-03-07T08:14:25.596Z,10.43
2023-03-07T08:16:54.501Z,11.10
2023-03-07T08:19:22.850Z,11.07
2023-03-07T08:21:51.415Z,9.03
2023-03-07T08:24:21.798Z,10.43
2023-03-07T08:26:51.696Z,8.00
2023-03-07T08:29:21.970Z,7.30
2023-03-07T08:31:51.925Z,9.00
2023-03-07T08:34:20.372Z,7.00
2023-03-07T08:36:49.058Z,10.07
2023-03-07T08:39:17.616Z,9.97
2023-03-07T08:41:46.072Z,9.13
2023-03-07T08:44:14.631Z,9.93
2023-03-07T08:46:44.417Z,9.13
2023-03-07T08:49:13.334Z,8.53
2023-03-07T08:51:41.992Z,7.57
2023-03-07T08:54:10.531Z,8.90
2023-03-07T08:56:39.221Z,10.57
2023-03-07T08:59:07.727Z,9.40
2023-03-07T09:01:36.171Z,8.87
2023-03-07T09:04:06.345Z,11.33
2023-03-07T09:06:34.945Z,12.33
2023-03-07T09:09:03.817Z,12.53
2023-03-07T09:11:32.223Z,14.30
2023-03-07T09:14:00.590Z,12.87
2023-03-07T09:16:28.976Z,14.37
2023-03-07T09:18:57.540Z,13.37
2023-03-07T09:21:27.271Z,13.90
2023-03-07T09:23:55.728Z,12.80
2023-03-07T09:26:24.176Z,16.00
2023-03-07T09:28:52.664Z,16.77
2023-03-07T09:31:21.349Z,14.63
2023-03-07T09:33:49.800Z,14.50
2023-03-07T09:36:19.677Z,17.10
2023-03-07T09:38:49.615Z,15.60
2023-03-07T09:41:49.905Z,15.27
2023-03-07T09:44:34.268Z,15.37
2023-03-07T09:48:10.525Z,13.67
2023-03-07T09:50:49.373Z,14.03
2023-03-07T09:53:25.623Z,13.93
2023-03-07T09:56:09.683Z,19.30
2023-03-07T09:58:45.406Z,28.23
2023-03-07T10:01:17.067Z,36.70
2023-03-07T10:03:55.556Z,37.80
2023-03-07T10:06:31.505Z,32.73
2023-03-07T10:09:01.769Z,34.73
2023-03-07T10:11:54.424Z,34.20
2023-03-07T10:14:48.824Z,37.93
2023-03-07T10:17:30.968Z,37.63
2023-03-07T10:20:09.141Z,37.10
2023-03-07T10:22:46.370Z,35.90
2023-03-07T10:25:27.432Z,39.90
2023-03-07T10:28:10.212Z,37.50
2023-03-07T10:30:39.048Z,36.70
2023-03-07T10:33:17.264Z,32.00
2023-03-07T10:35:51.253Z,30.37
2023-03-07T10:38:29.680Z,25.50
2023-03-07T10:41:03.462Z,28.67
2023-03-07T10:43:35.456Z,22.50
2023-03-07T10:46:24.589Z,27.93
2023-03-07T10:48:56.445Z,37.93
2023-03-07T10:51:51.522Z,39.20
2023-03-07T10:54:23.510Z,39.33
2023-03-07T10:57:09.709Z,39.07
2023-03-07T10:59:43.581Z,31.40
2023-03-07T11:02:35.969Z,30.50
2023-03-07T11:05:19.621Z,36.17
2023-03-07T11:07:48.079Z,32.83
2023-03-07T11:10:37.269Z,28.43
2023-03-07T11:13:15.209Z,27.93
2023-03-07T11:15:45.567Z,26.40
2023-03-07T11:18:29.982Z,29.40
2023-03-07T11:21:00.277Z,27.47
2023-03-07T11:23:31.608Z,26.73
2023-03-07T11:26:17.263Z,27.70
2023-03-07T11:28:45.838Z,27.50
2023-03-07T11:31:28.577Z,30.60
2023-03-07T11:34:06.632Z,32.87
2023-03-07T11:36:37.838Z,33.53
2023-03-07T11:39:17.724Z,32.70
2023-03-07T11:41:49.271Z,31.50
2023-03-07T11:44:33.694Z,34.10
2023-03-07T11:47:34.682Z,29.47
2023-03-07T11:50:17.773Z,32.20
2023-03-07T11:53:31.291Z,27.80
2023-03-07T11:56:24.948Z,22.70
2023-03-07T11:59:40.542Z,23.40
2023-03-07T12:02:38.563Z,22.37
2023-03-07T12:05:37.689Z,23.87
2023-03-07T12:08:37.201Z,18.47
2023-03-07T12:11:23.502Z,13.57
2023-03-07T12:14:01.918Z,6.77
2023-03-07T12:16:43.364Z,6.73
2023-03-07T12:19:44.236Z,7.63
2023-03-07T12:22:28.990Z,8.10
2023-03-07T12:25:23.507Z,9.33
2023-03-07T12:28:12.095Z,14.50
2023-03-07T12:30:56.034Z,11.00
2023-03-07T12:33:38.688Z,12.37
2023-03-07T12:36:18.507Z,12.70
2023-03-07T12:38:53.990Z,15.97
2023-03-07T12:41:40.348Z,14.50
2023-03-07T12:44:17.476Z,12.37
2023-03-07T12:46:52.411Z,12.50
2023-03-07T12:49:35.695Z,12.87
2023-03-07T12:52:17.631Z,8.60
2023-03-07T12:54:54.607Z,5.50
2023-03-07T12:57:29.815Z,2.30
2023-03-07T13:00:05.733Z,1.80
2023-03-07T13:02:43.015Z,2.87
2023-03-07T13:05:21.402Z,1.40
2023-03-07T13:07:52.207Z,1.60
2023-03-07T13:10:23.413Z,1.70
2023-03-07T13:12:53.065Z,2.63
2023-03-07T13:16:05.121Z,3.40
2023-03-07T13:18:34.391Z,3.07
2023-03-07T13:21:30.851Z,4.80
2023-03-07T13:24:36.745Z,2.30
2023-03-07T13:27:15.300Z,3.00
2023-03-07T13:30:18.210Z,2.80
2023-03-07T13:32:58.734Z,3.97
2023-03-07T13:35:57.966Z,6.00
2023-03-07T13:38:35.850Z,2.87
2023-03-07T13:41:06.774Z,5.00
2023-03-07T13:44:02.080Z,3.97
2023-03-07T13:46:48.778Z,3.23
2023-03-07T13:49:45.515Z,5.50
2023-03-07T13:52:40.201Z,5.00
2023-03-07T13:55:39.577Z,8.03
2023-03-07T13:58:29.824Z,4.30
2023-03-07T14:01:02.751Z,5.63
2023-03-07T14:03:36.916Z,4.50
2023-03-07T14:06:12.473Z,7.87
2023-03-07T14:08:41.525Z,4.10
2023-03-07T14:11:23.165Z,2.73
2023-03-07T14:14:25.090Z,4.40
2023-03-07T14:17:15.147Z,4.17
2023-03-07T14:20:09.165Z,2.63
2023-03-07T14:22:54.107Z,2.87
2023-03-07T14:25:26.056Z,4.30
2023-03-07T14:27:58.534Z,3.87
2023-03-07T14:30:32.002Z,3.50
2023-03-07T14:33:02.182Z,4.00
2023-03-07T14:35:45.369Z,6.93
2023-03-07T14:38:21.305Z,5.93
2023-03-07T14:41:36.015Z,6.43
2023-03-07T14:44:35.674Z,8.00
2023-03-07T14:47:20.893Z,5.90
2023-03-07T14:50:01.576Z,6.97
2023-03-07T14:52:31.903Z,8.10
2023-03-07T14:55:03.956Z,10.50
2023-03-07T14:57:35.984Z,7.93
2023-03-07T15:00:17.170Z,5.37
2023-03-07T15:03:04.317Z,6.77
2023-03-07T15:05:37.078Z,7.47
2023-03-07T15:08:18.849Z,8.07
2023-03-07T15:10:51.868Z,5.13
2023-03-07T15:13:29.935Z,6.00
2023-03-07T15:16:04.098Z,10.93
2023-03-07T15:18:39.199Z,11.90
2023-03-07T15:21:09.441Z,6.93
2023-03-07T15:23:37.871Z,8.20
2023-03-07T15:26:10.894Z,3.83
2023-03-07T15:28:41.671Z,3.53
2023-03-07T15:31:11.361Z,4.90
2023-03-07T15:33:41.475Z,4.10
2023-03-07T15:36:28.323Z,10.30
2023-03-07T15:39:33.159Z,5.30
2023-03-07T15:42:05.161Z,9.83
2023-03-07T15:44:34.318Z,6.17
2023-03-07T15:47:15.134Z,8.90
2023-03-07T15:49:47.327Z,6.70
2023-03-07T15:52:33.544Z,9.97
2023-03-07T15:55:05.779Z,7.20
2023-03-07T15:57:39.188Z,6.17
2023-03-07T16:00:17.484Z,5.73
2023-03-07T16:02:48.289Z,6.80
2023-03-07T16:05:43.724Z,9.53
2023-03-07T16:08:15.650Z,6.87
2023-03-07T16:10:52.193Z,9.60
2023-03-07T16:13:24.341Z,8.67
2023-03-07T16:16:06.105Z,9.63
2023-03-07T16:18:35.498Z,13.43
2023-03-07T16:21:06.355Z,13.27
2023-03-07T16:23:35.359Z,9.10
2023-03-07T16:26:06.110Z,12.23
2023-03-07T16:28:37.878Z,9.53
2023-03-07T16:31:13.208Z,10.30
2023-03-07T16:33:41.714Z,6.83
2023-03-07T16:36:13.979Z,7.10
2023-03-07T16:38:43.155Z,7.07
2023-03-07T16:41:19.314Z,6.90
2023-03-07T16:43:52.843Z,11.17
2023-03-07T16:46:22.520Z,7.33
2023-03-07T16:48:51.126Z,11.17
2023-03-07T16:51:23.580Z,7.67
2023-03-07T16:53:52.570Z,7.17
2023-03-07T16:56:26.663Z,3.07
2023-03-07T16:58:55.441Z,2.67
2023-03-07T17:01:24.022Z,3.57
2023-03-07T17:03:52.670Z,9.10
2023-03-07T17:06:33.597Z,3.60
2023-03-07T17:09:09.598Z,4.93
2023-03-07T17:11:39.710Z,6.63
2023-03-07T17:14:12.531Z,3.00
2023-03-07T17:16:45.136Z,6.60
2023-03-07T17:19:26.076Z,5.10
2023-03-07T17:21:56.332Z,6.70
2023-03-07T17:24:25.224Z,4.90
2023-03-07T17:26:54.799Z,5.57
2023-03-07T17:29:30.073Z,10.93
2023-03-07T17:31:58.669Z,10.53
2023-03-07T17:34:30.629Z,9.37
2023-03-07T17:37:01.415Z,4.70
2023-03-07T17:39:34.376Z,9.87
2023-03-07T17:42:03.575Z,5.60
2023-03-07T17:44:32.834Z,8.30
2023-03-07T17:47:01.631Z,8.97
2023-03-07T17:49:35.555Z,9.93
2023-03-07T17:52:08.173Z,12.33
2023-03-07T17:54:36.657Z,6.83
2023-03-07T17:57:05.740Z,11.73
2023-03-07T17:59:34.731Z,9.80
2023-03-07T18:02:03.304Z,10.67
2023-03-07T18:04:31.857Z,15.00
2023-03-07T18:07:00.856Z,10.60
2023-03-07T18:09:30.612Z,18.03
2023-03-07T18:11:59.053Z,19.57
2023-03-07T18:14:28.306Z,13.73
2023-03-07T18:16:57.810Z,11.30
2023-03-07T18:19:27.389Z,11.93
2023-03-07T18:21:56.442Z,16.13
2023-03-07T18:24:29.979Z,9.53
2023-03-07T18:27:00.549Z,10.80
2023-03-07T18:29:30.757Z,15.63
2023-03-07T18:31:59.262Z,14.27
2023-03-07T18:34:27.950Z,10.43
2023-03-07T18:36:56.629Z,10.80
2023-03-07T18:39:27.310Z,7.77
2023-03-07T18:41:55.758Z,8.63
2023-03-07T18:44:26.047Z,7.47
2023-03-07T18:46:54.993Z,4.47
2023-03-07T18:49:23.381Z,4.23
2023-03-07T18:51:51.752Z,4.83
2023-03-07T18:54:20.121Z,10.90
2023-03-07T18:56:48.713Z,7.03
2023-03-07T18:59:18.426Z,10.87
2023-03-07T19:01:50.183Z,4.53
2023-03-07T19:04:19.588Z,5.80
2023-03-07T19:06:48.611Z,10.00
2023-03-07T19:09:19.230Z,9.23
2023-03-07T19:11:48.456Z,11.80
2023-03-07T19:14:16.893Z,10.83
2023-03-07T19:16:45.674Z,13.33
2023-03-07T19:19:15.611Z,11.40
2023-03-07T19:21:44.105Z,13.00
2023-03-07T19:24:13.434Z,12.93
2023-03-07T19:26:43.308Z,15.40
2023-03-07T19:29:13.120Z,18.30
2023-03-07T19:31:43.769Z,12.50
2023-03-07T19:34:12.739Z,16.00
2023-03-07T19:36:43.157Z,13.43
2023-03-07T19:39:15.216Z,22.53
2023-03-07T19:41:47.811Z,18.67
2023-03-07T19:44:17.223Z,19.73
2023-03-07T19:46:47.287Z,16.40
2023-03-07T19:49:17.213Z,11.27
2023-03-07T19:51:47.062Z,15.17
2023-03-07T19:54:16.460Z,17.43
2023-03-07T19:56:45.654Z,17.30
2023-03-07T19:59:14.817Z,20.90
2023-03-07T20:01:43.703Z,25.20
2023-03-07T20:04:13.362Z,16.43
2023-03-07T20:06:43.302Z,21.00
2023-03-07T20:09:14.250Z,23.33
2023-03-07T20:11:43.866Z,18.00
2023-03-07T20:14:13.364Z,21.73
2023-03-07T20:16:42.027Z,19.97
2023-03-07T20:19:11.750Z,23.70
2023-03-07T20:21:40.381Z,20.20
2023-03-07T20:24:09.665Z,25.30
2023-03-07T20:26:40.765Z,29.53
2023-03-07T20:29:11.643Z,32.63
2023-03-07T20:31:41.113Z,22.23
2023-03-07T20:34:09.914Z,18.33
2023-03-07T20:36:39.542Z,16.40
2023-03-07T20:39:14.356Z,17.67
2023-03-07T20:41:45.268Z,21.13
2023-03-07T20:44:16.202Z,13.97
2023-03-07T20:46:44.766Z,13.97
2023-03-07T20:49:14.545Z,19.80
2023-03-07T20:51:44.167Z,23.00
2023-03-07T20:54:15.498Z,17.23
2023-03-07T20:56:47.364Z,17.57
2023-03-07T20:59:17.676Z,14.90
2023-03-07T21:01:46.470Z,16.13
2023-03-07T21:04:17.792Z,18.37
2023-03-07T21:06:47.912Z,13.70
2023-03-07T21:09:18.849Z,12.37
2023-03-07T21:11:50.119Z,16.33
2023-03-07T21:14:20.834Z,13.50
2023-03-07T21:16:49.468Z,13.57
2023-03-07T21:19:17.832Z,14.63
2023-03-07T21:21:46.269Z,29.00
2023-03-07T21:24:15.550Z,18.70
2023-03-07T21:26:43.946Z,16.37
2023-03-07T21:29:14.181Z,18.93
2023-03-07T21:31:42.694Z,17.60
2023-03-07T21:34:14.707Z,14.57
2023-03-07T21:36:43.250Z,22.80
2023-03-07T21:39:12.717Z,18.27
2023-03-07T21:41:41.367Z,23.40
2023-03-07T21:44:10.641Z,21.93
2023-03-07T21:46:40.312Z,28.73
2023-03-07T21:49:08.973Z,29.20
2023-03-07T21:51:37.351Z,28.37
2023-03-07T21:54:06.188Z,30.07
2023-03-07T21:56:34.647Z,37.30
2023-03-07T21:59:03.038Z,30.90
2023-03-07T22:01:31.471Z,37.63
2023-03-07T22:04:01.311Z,35.50
2023-03-07T22:06:30.314Z,35.90
2023-03-07T22:09:00.551Z,43.70
2023-03-07T22:11:29.181Z,45.30
2023-03-07T22:13:57.440Z,44.20
2023-03-07T22:16:25.790Z,37.53
2023-03-07T22:18:56.115Z,49.40
2023-03-07T22:21:26.908Z,45.60
2023-03-07T22:23:57.898Z,44.97
2023-03-07T22:26:26.837Z,51.27
2023-03-07T22:28:55.905Z,41.63
2023-03-07T22:31:25.100Z,45.83
2023-03-07T22:33:53.695Z,45.40
2023-03-07T22:36:24.751Z,52.77
2023-03-07T22:38:57.108Z,46.63
2023-03-07T22:41:29.048Z,45.40
2023-03-07T22:43:57.371Z,39.90
2023-03-07T22:46:26.225Z,37.23
2023-03-07T22:48:55.044Z,39.27
2023-03-07T22:51:25.518Z,41.03
2023-03-07T22:53:55.434Z,45.70
2023-03-07T22:56:26.362Z,47.30
2023-03-07T22:58:55.121Z,39.57
2023-03-07T23:01:26.559Z,46.00
2023-03-07T23:03:57.024Z,41.50
2023-03-07T23:06:28.697Z,40.33
2023-03-07T23:08:59.681Z,48.90
2023-03-07T23:11:30.642Z,40.20
2023-03-07T23:13:59.660Z,42.20
2023-03-07T23:16:30.797Z,48.73
2023-03-07T23:19:00.711Z,54.07
2023-03-07T23:21:32.202Z,46.90
2023-03-07T23:24:03.122Z,55.90
2023-03-07T23:26:34.587Z,46.40
2023-03-07T23:29:03.402Z,50.77
2023-03-07T23:31:34.050Z,49.77
2023-03-07T23:34:05.781Z,49.30
2023-03-07T23:36:35.068Z,50.43
2023-03-07T23:39:05.384Z,49.83
2023-03-07T23:41:33.944Z,53.27
2023-03-07T23:44:03.532Z,52.97
2023-03-07T23:46:33.310Z,52.17
2023-03-07T23:49:02.774Z,52.83
2023-03-07T23:51:31.792Z,42.07
2023-03-07T23:54:00.118Z,49.67
2023-03-07T23:56:29.896Z,45.80
2023-03-07T23:58:58.262Z,43.33
